createdAt,value
2017-10-09T00:03:16.786Z,92.65
2017-10-09T00:23:52.978Z,91.31
2017-10-09T00:44:29.169Z,91.34
2017-10-09T01:05:04.440Z,92.30
2017-10-09T01:13:48.496Z,91.06
2017-10-09T01:16:22.351Z,91.96
2017-10-09T01:18:50.689Z,92.44
2017-10-09T01:21:19.059Z,92.39
2017-10-09T01:23:47.369Z,92.20
2017-10-09T01:26:15.667Z,91.82
2017-10-09T01:28:43.962Z,91.85
2017-10-09T01:31:12.255Z,91.77
2017-10-09T01:33:40.577Z,92.03
2017-10-09T01:36:09.646Z,92.18
2017-10-09T01:38:38.027Z,92.56
2017-10-09T01:41:06.332Z,92.70
2017-10-09T01:43:34.623Z,92.73
2017-10-09T01:46:02.918Z,92.49
2017-10-09T01:48:32.162Z,92.48
2017-10-09T01:51:01.745Z,92.54
2017-10-09T01:53:30.017Z,92.46
2017-10-09T01:55:58.420Z,92.36
2017-10-09T01:58:26.783Z,92.60
2017-10-09T02:00:55.157Z,92.34
2017-10-09T02:03:23.498Z,91.82
2017-10-09T02:05:51.808Z,92.35
2017-10-09T02:08:20.427Z,92.44
2017-10-09T02:10:48.707Z,91.93
2017-10-09T02:13:17.764Z,91.70
2017-10-09T02:15:46.054Z,92.20
2017-10-09T02:18:14.322Z,92.49
2017-10-09T02:20:42.639Z,92.55
2017-10-09T02:23:10.921Z,92.46
2017-10-09T02:25:40.274Z,91.82
2017-10-09T02:28:08.549Z,92.05
2017-10-09T02:30:37.312Z,92.31
2017-10-09T02:33:05.614Z,92.37
2017-10-09T02:35:33.899Z,92.31
2017-10-09T02:38:02.243Z,91.78
2017-10-09T02:40:30.525Z,91.30
2017-10-09T02:42:59.086Z,91.41
2017-10-09T02:45:27.377Z,92.12
2017-10-09T02:47:56.406Z,92.33
2017-10-09T02:50:25.228Z,92.64
2017-10-09T02:52:53.510Z,92.73
2017-10-09T02:55:21.900Z,92.70
2017-10-09T02:57:50.192Z,92.48
2017-10-09T03:00:18.505Z,92.57
2017-10-09T03:02:46.804Z,92.23
2017-10-09T03:05:15.115Z,92.13
2017-10-09T03:07:43.437Z,92.38
2017-10-09T03:10:11.716Z,92.70
2017-10-09T03:12:40.019Z,92.89
2017-10-09T03:15:08.324Z,92.62
2017-10-09T03:17:36.647Z,92.68
2017-10-09T03:20:05.019Z,91.99
2017-10-09T03:22:33.311Z,91.48
2017-10-09T03:25:01.603Z,91.24
2017-10-09T03:27:30.285Z,91.34
2017-10-09T03:30:00.249Z,91.20
2017-10-09T03:32:29.302Z,90.72
2017-10-09T03:34:57.615Z,90.45
2017-10-09T03:37:26.000Z,90.77
2017-10-09T03:39:55.060Z,90.54
2017-10-09T03:42:24.318Z,90.40
2017-10-09T03:44:53.353Z,90.40
2017-10-09T03:47:21.672Z,90.22
2017-10-09T03:49:50.739Z,90.73
2017-10-09T03:52:19.023Z,90.66
2017-10-09T03:54:47.307Z,90.58
2017-10-09T03:57:15.600Z,90.67
2017-10-09T03:59:44.198Z,91.51
2017-10-09T04:02:13.249Z,91.89
2017-10-09T04:04:41.542Z,91.68
2017-10-09T04:07:09.874Z,91.13
2017-10-09T04:09:38.159Z,91.28
2017-10-09T04:12:06.762Z,90.99
2017-10-09T04:14:35.042Z,90.72
2017-10-09T04:17:03.313Z,90.84
2017-10-09T04:19:31.610Z,90.77
2017-10-09T04:21:59.885Z,90.49
2017-10-09T04:24:28.248Z,90.31
2017-10-09T04:26:56.529Z,90.26
2017-10-09T04:29:24.814Z,91.15
2017-10-09T04:31:53.121Z,90.85
2017-10-09T04:34:22.174Z,90.78
2017-10-09T04:36:50.696Z,90.59
2017-10-09T04:39:18.983Z,91.19
2017-10-09T04:41:47.280Z,91.58
2017-10-09T04:44:16.358Z,91.41
2017-10-09T04:46:45.424Z,90.93
2017-10-09T04:49:13.725Z,90.68
2017-10-09T04:51:42.766Z,91.40
2017-10-09T04:54:11.084Z,91.63
2017-10-09T04:56:39.409Z,91.38
2017-10-09T04:59:07.705Z,90.97
2017-10-09T05:01:36.002Z,90.74
2017-10-09T05:04:04.276Z,90.54
2017-10-09T05:06:32.586Z,90.38
2017-10-09T05:09:00.896Z,90.36
2017-10-09T05:11:29.191Z,90.65
2017-10-09T05:13:57.493Z,90.60
2017-10-09T05:16:25.818Z,90.27
2017-10-09T05:18:54.872Z,91.06
2017-10-09T05:21:24.560Z,91.20
2017-10-09T05:23:52.853Z,90.85
2017-10-09T05:26:21.148Z,90.70
2017-10-09T05:28:49.452Z,90.32
2017-10-09T05:31:17.761Z,90.67
2017-10-09T05:33:46.080Z,90.53
2017-10-09T05:36:14.356Z,90.24
2017-10-09T05:38:42.676Z,89.94
2017-10-09T05:41:10.973Z,90.18
2017-10-09T05:43:39.284Z,90.26
2017-10-09T05:46:07.591Z,90.13
2017-10-09T05:48:35.868Z,89.75
2017-10-09T05:51:04.187Z,90.07
2017-10-09T05:53:32.491Z,89.82
2017-10-09T05:56:00.794Z,90.31
2017-10-09T05:58:30.034Z,90.25
2017-10-09T06:00:58.316Z,90.38
2017-10-09T06:03:26.603Z,90.08
2017-10-09T06:05:54.912Z,89.92
2017-10-09T06:08:23.183Z,89.91
2017-10-09T06:10:51.461Z,89.61
2017-10-09T06:13:19.765Z,90.60
2017-10-09T06:15:48.153Z,91.25
2017-10-09T06:18:16.484Z,91.77
2017-10-09T06:20:44.801Z,92.25
2017-10-09T06:23:13.127Z,92.73
2017-10-09T06:25:41.716Z,92.19
2017-10-09T06:28:10.011Z,92.05
2017-10-09T06:30:38.293Z,92.33
2017-10-09T06:33:06.578Z,92.61
2017-10-09T06:35:35.513Z,92.24
2017-10-09T06:38:04.871Z,92.11
2017-10-09T06:40:33.152Z,91.73
2017-10-09T06:43:01.435Z,91.43
2017-10-09T06:45:29.747Z,91.24
2017-10-09T06:47:59.290Z,90.98
2017-10-09T06:50:27.627Z,90.62
2017-10-09T06:52:55.910Z,90.42
2017-10-09T06:55:24.762Z,90.19
2017-10-09T06:57:53.047Z,89.95
2017-10-09T07:00:21.334Z,89.71
2017-10-09T07:02:49.738Z,89.78
2017-10-09T07:05:18.011Z,89.74
2017-10-09T07:07:46.332Z,89.73
2017-10-09T07:10:14.605Z,89.70
2017-10-09T07:12:42.898Z,89.43
2017-10-09T07:15:11.212Z,89.52
2017-10-09T07:17:39.511Z,89.62
2017-10-09T07:20:08.888Z,89.63
2017-10-09T07:22:37.955Z,89.67
2017-10-09T07:25:06.256Z,89.62
2017-10-09T07:27:34.557Z,89.87
2017-10-09T07:30:02.918Z,90.52
2017-10-09T07:32:31.713Z,90.63
2017-10-09T07:35:00.013Z,90.64
2017-10-09T07:37:29.072Z,90.61
2017-10-09T07:39:59.041Z,90.48
2017-10-09T07:42:28.586Z,90.59
2017-10-09T07:44:56.905Z,91.03
2017-10-09T07:47:25.976Z,91.40
2017-10-09T07:49:54.309Z,92.03
2017-10-09T07:52:30.797Z,92.24
2017-10-09T07:55:08.214Z,92.56
2017-10-09T07:57:42.574Z,92.65
2017-10-09T08:00:13.984Z,91.98
2017-10-09T08:02:42.996Z,92.27
2017-10-09T08:05:11.290Z,92.16
2017-10-09T08:07:40.353Z,92.07
2017-10-09T08:10:08.659Z,92.17
2017-10-09T08:12:36.944Z,91.77
2017-10-09T08:15:06.335Z,91.27
2017-10-09T08:17:34.627Z,91.25
2017-10-09T08:20:02.921Z,91.42
2017-10-09T08:22:31.265Z,91.09
2017-10-09T08:24:59.577Z,91.42
2017-10-09T08:27:28.671Z,91.25
2017-10-09T08:29:56.958Z,91.55
2017-10-09T08:32:25.679Z,91.51
2017-10-09T08:34:53.967Z,91.47
2017-10-09T08:37:22.259Z,91.24
2017-10-09T08:42:25.058Z,90.87
2017-10-09T08:44:53.406Z,91.19
2017-10-09T08:47:21.748Z,90.36
2017-10-09T08:49:50.856Z,90.28
2017-10-09T08:52:19.193Z,90.28
2017-10-09T08:57:21.414Z,90.29
2017-10-09T08:59:50.530Z,90.30
2017-10-09T09:07:25.771Z,89.38
2017-10-09T09:15:01.338Z,89.09
2017-10-09T09:22:36.556Z,87.76
2017-10-09T09:27:39.224Z,86.39
2017-10-09T09:40:21.615Z,84.62
2017-10-09T09:42:50.719Z,82.92
2017-10-09T09:50:26.007Z,84.46
2017-10-09T09:52:54.318Z,83.51
2017-10-09T09:55:22.635Z,82.41
2017-10-09T09:57:51.012Z,83.32
2017-10-09T10:00:19.339Z,82.67
2017-10-09T10:02:47.635Z,82.65
2017-10-09T10:05:15.942Z,81.78
2017-10-09T10:07:44.240Z,82.25
2017-10-09T10:10:13.615Z,81.48
2017-10-09T10:12:42.080Z,80.92
2017-10-09T10:15:17.799Z,82.04
2017-10-09T10:17:55.880Z,80.90
2017-10-09T10:20:34.175Z,81.42
2017-10-09T10:23:12.779Z,81.53
2017-10-09T10:25:50.630Z,81.26
2017-10-09T10:28:28.158Z,81.03
2017-10-09T10:31:06.110Z,79.44
2017-10-09T10:33:40.653Z,80.81
2017-10-09T10:36:17.902Z,81.58
2017-10-09T10:38:55.328Z,80.83
2017-10-09T10:41:32.636Z,79.56
2017-10-09T10:44:11.218Z,79.35
2017-10-09T10:46:41.496Z,78.73
2017-10-09T10:49:19.638Z,78.60
2017-10-09T10:51:59.171Z,77.87
2017-10-09T10:54:36.178Z,76.49
2017-10-09T10:57:14.632Z,76.21
2017-10-09T10:59:52.881Z,75.60
2017-10-09T11:02:33.036Z,76.91
2017-10-09T11:05:10.729Z,76.52
2017-10-09T11:07:48.983Z,77.51
2017-10-09T11:10:26.294Z,76.72
2017-10-09T11:13:04.208Z,77.94
2017-10-09T11:15:42.302Z,78.39
2017-10-09T11:18:11.805Z,77.54
2017-10-09T11:20:47.634Z,77.51
2017-10-09T11:23:25.539Z,77.42
2017-10-09T11:26:03.543Z,76.08
2017-10-09T11:28:40.888Z,74.97
2017-10-09T11:31:19.551Z,74.51
2017-10-09T11:33:57.293Z,75.37
2017-10-09T11:36:34.979Z,75.24
2017-10-09T11:39:12.459Z,75.49
2017-10-09T11:41:50.979Z,72.30
2017-10-09T11:44:28.303Z,72.02
2017-10-09T11:47:06.361Z,73.65
2017-10-09T11:49:37.735Z,72.91
2017-10-09T11:52:15.673Z,72.51
2017-10-09T11:54:44.462Z,73.39
2017-10-09T11:57:12.772Z,74.46
2017-10-09T11:59:41.078Z,72.77
2017-10-09T12:02:09.399Z,71.99
2017-10-09T12:04:37.727Z,71.81
2017-10-09T12:07:06.006Z,70.92
2017-10-09T12:09:34.314Z,71.67
2017-10-09T12:12:03.798Z,72.21
2017-10-09T12:14:32.852Z,72.26
2017-10-09T12:17:01.155Z,73.49
2017-10-09T12:19:29.428Z,69.69
2017-10-09T12:21:57.736Z,71.71
2017-10-09T12:24:26.817Z,70.33
2017-10-09T12:26:55.096Z,68.21
2017-10-09T12:29:23.402Z,69.18
2017-10-09T12:31:51.693Z,69.00
2017-10-09T12:34:20.291Z,69.87
2017-10-09T12:36:48.617Z,69.59
2017-10-09T12:39:16.929Z,69.49
2017-10-09T12:41:45.266Z,70.00
2017-10-09T12:44:14.337Z,69.29
2017-10-09T12:46:43.039Z,68.49
2017-10-09T12:49:11.328Z,68.88
2017-10-09T12:51:39.635Z,68.90
2017-10-09T12:54:07.952Z,68.92
2017-10-09T12:56:36.240Z,67.62
2017-10-09T12:59:04.546Z,68.54
2017-10-09T13:01:32.843Z,69.39
2017-10-09T13:04:01.164Z,67.82
2017-10-09T13:06:29.488Z,69.08
2017-10-09T13:08:58.512Z,69.90
2017-10-09T13:11:26.835Z,69.02
2017-10-09T13:13:55.179Z,67.74
2017-10-09T13:16:23.495Z,68.61
2017-10-09T13:18:52.192Z,69.34
2017-10-09T13:21:20.493Z,69.02
2017-10-09T13:23:48.808Z,70.33
2017-10-09T13:26:17.103Z,67.25
2017-10-09T13:28:45.430Z,68.28
2017-10-09T13:31:14.508Z,68.60
2017-10-09T13:33:42.791Z,66.93
2017-10-09T13:36:11.480Z,68.37
2017-10-09T13:38:40.139Z,68.01
2017-10-09T13:41:08.441Z,67.93
2017-10-09T13:43:36.717Z,69.07
2017-10-09T13:46:05.067Z,68.41
2017-10-09T13:48:33.419Z,68.23
2017-10-09T14:03:52.613Z,68.20
2017-10-09T14:06:20.936Z,67.24
2017-10-09T14:11:23.468Z,68.17
2017-10-09T14:16:25.295Z,67.96
2017-10-09T14:24:02.800Z,67.42
2017-10-09T14:41:31.462Z,68.05
2017-10-09T14:43:59.803Z,68.28
2017-10-09T14:46:28.914Z,68.13
2017-10-09T14:48:58.130Z,69.09
2017-10-09T14:51:26.553Z,68.93
2017-10-09T14:53:54.868Z,70.22
2017-10-09T14:56:23.967Z,69.79
2017-10-09T14:58:52.918Z,69.84
2017-10-09T15:01:21.245Z,70.47
2017-10-09T15:03:49.596Z,71.50
2017-10-09T15:06:17.954Z,72.67
2017-10-09T15:08:46.286Z,73.24
2017-10-09T15:11:14.633Z,74.07
2017-10-09T15:13:42.964Z,73.98
2017-10-09T15:16:12.454Z,73.54
2017-10-09T15:18:40.813Z,73.75
2017-10-09T15:21:10.294Z,74.18
2017-10-09T15:23:38.645Z,74.62
2017-10-09T15:26:06.972Z,74.92
2017-10-09T15:28:35.333Z,75.38
2017-10-09T15:31:03.704Z,75.23
2017-10-09T15:33:32.077Z,75.21
2017-10-09T15:36:00.413Z,74.67
2017-10-09T15:38:28.758Z,75.46
2017-10-09T15:40:57.166Z,75.56
2017-10-09T15:43:25.546Z,75.72
2017-10-09T15:45:53.907Z,75.95
2017-10-09T15:48:22.248Z,76.36
2017-10-09T15:50:50.570Z,76.52
2017-10-09T15:53:18.913Z,76.25
2017-10-09T15:55:48.153Z,76.40
2017-10-09T15:58:16.445Z,76.96
2017-10-09T16:00:44.818Z,77.67
2017-10-09T16:03:13.922Z,77.17
2017-10-09T16:05:42.531Z,77.45
2017-10-09T16:08:10.862Z,76.96
2017-10-09T16:10:39.204Z,78.18
2017-10-09T16:13:07.561Z,78.35
2017-10-09T16:15:35.894Z,78.27
2017-10-09T16:18:04.251Z,78.23
2017-10-09T16:20:41.048Z,79.02
2017-10-09T16:23:10.199Z,78.34
2017-10-09T16:25:38.591Z,78.61
2017-10-09T16:28:06.932Z,79.26
2017-10-09T16:30:36.435Z,79.40
2017-10-09T16:33:05.665Z,78.94
2017-10-09T16:35:33.989Z,78.93
2017-10-09T16:38:02.357Z,79.06
2017-10-09T16:40:30.723Z,79.11
2017-10-09T16:42:59.043Z,79.28
2017-10-09T16:45:27.397Z,79.50
2017-10-09T16:47:56.451Z,80.04
2017-10-09T16:50:24.821Z,79.97
2017-10-09T16:52:53.154Z,79.86
2017-10-09T16:55:21.538Z,80.28
2017-10-09T16:57:49.890Z,80.46
2017-10-09T17:00:18.220Z,80.36
2017-10-09T17:02:47.365Z,80.87
2017-10-09T17:05:15.727Z,81.35
2017-10-09T17:07:44.385Z,81.82
2017-10-09T17:10:13.879Z,82.02
2017-10-09T17:12:42.216Z,82.43
2017-10-09T17:15:10.582Z,82.62
2017-10-09T17:17:38.932Z,83.07
2017-10-09T17:20:07.286Z,83.11
2017-10-09T17:22:35.619Z,82.94
2017-10-09T17:25:04.219Z,83.13
2017-10-09T17:27:32.539Z,83.47
2017-10-09T17:30:01.643Z,83.50
2017-10-09T17:32:29.986Z,83.60
2017-10-09T17:34:58.316Z,83.72
2017-10-09T17:37:27.676Z,83.71
2017-10-09T17:39:56.030Z,83.78
2017-10-09T17:42:24.410Z,83.77
2017-10-09T17:44:52.748Z,83.80
2017-10-09T17:47:21.848Z,83.74
2017-10-09T17:49:51.038Z,83.77
2017-10-09T17:52:20.160Z,83.41
2017-10-09T17:54:49.684Z,83.69
2017-10-09T17:57:18.079Z,83.78
2017-10-09T17:59:46.826Z,84.14
2017-10-09T18:02:15.285Z,84.51
2017-10-09T18:04:43.617Z,84.61
2017-10-09T18:07:11.970Z,84.20
2017-10-09T18:09:41.067Z,84.07
2017-10-09T18:12:09.413Z,84.01
2017-10-09T18:14:38.227Z,84.01
2017-10-09T18:17:07.351Z,84.07
2017-10-09T18:19:35.711Z,84.29
2017-10-09T18:22:04.074Z,84.07
2017-10-09T18:24:32.414Z,83.89
2017-10-09T18:27:00.749Z,83.68
2017-10-09T18:29:29.880Z,83.71
2017-10-09T18:31:58.217Z,84.23
2017-10-09T18:34:26.568Z,84.76
2017-10-09T18:36:54.892Z,84.56
2017-10-09T18:39:23.269Z,84.85
2017-10-09T18:41:51.608Z,85.18
2017-10-09T18:44:19.928Z,85.13
2017-10-09T18:46:48.287Z,85.18
2017-10-09T18:49:17.439Z,85.05
2017-10-09T18:51:46.709Z,84.86
2017-10-09T18:54:15.045Z,85.21
2017-10-09T18:56:44.211Z,85.05
2017-10-09T18:59:12.543Z,85.11
2017-10-09T19:01:40.884Z,85.10
2017-10-09T19:04:09.242Z,84.98
2017-10-09T19:06:37.574Z,84.78
2017-10-09T19:09:06.738Z,85.01
2017-10-09T19:11:35.098Z,84.54
2017-10-09T19:14:03.746Z,84.94
2017-10-09T19:16:32.072Z,84.63
2017-10-09T19:19:00.421Z,84.71
2017-10-09T19:21:28.894Z,84.74
2017-10-09T19:23:58.038Z,84.92
2017-10-09T19:26:26.419Z,85.06
2017-10-09T19:28:54.766Z,85.52
2017-10-09T19:31:23.132Z,85.72
2017-10-09T19:33:51.476Z,85.32
2017-10-09T19:36:19.830Z,85.58
2017-10-09T19:38:48.961Z,86.13
2017-10-09T19:41:17.306Z,86.07
2017-10-09T19:43:45.666Z,86.06
2017-10-09T19:46:14.209Z,86.19
2017-10-09T19:48:44.158Z,86.61
2017-10-09T19:51:13.407Z,86.55
2017-10-09T19:53:42.488Z,85.82
2017-10-09T19:56:10.853Z,86.54
2017-10-09T19:58:39.220Z,86.72
2017-10-09T20:01:07.585Z,86.39
2017-10-09T20:03:36.175Z,86.49
2017-10-09T20:06:04.633Z,86.96
2017-10-09T20:08:32.960Z,87.10
2017-10-09T20:11:01.276Z,87.14
2017-10-09T20:13:29.636Z,87.33
2017-10-09T20:15:58.023Z,87.30
2017-10-09T20:18:26.420Z,87.17
2017-10-09T20:20:54.826Z,87.22
2017-10-09T20:23:24.010Z,87.41
2017-10-09T20:25:52.340Z,87.20
2017-10-09T20:28:20.667Z,87.07
2017-10-09T20:30:49.845Z,87.19
2017-10-09T20:33:18.475Z,87.32
2017-10-09T20:35:46.832Z,87.06
2017-10-09T20:38:15.650Z,86.88
2017-10-09T20:40:44.388Z,87.35
2017-10-09T20:43:12.715Z,87.11
2017-10-09T20:45:42.032Z,87.55
2017-10-09T20:48:10.375Z,87.42
2017-10-09T20:50:39.487Z,87.20
2017-10-09T20:53:07.832Z,87.78
2017-10-09T20:55:36.166Z,88.18
2017-10-09T20:58:04.525Z,87.62
2017-10-09T21:00:33.644Z,87.99
2017-10-09T21:03:01.961Z,88.28
2017-10-09T21:05:30.312Z,88.20
2017-10-09T21:07:58.628Z,87.61
2017-10-09T21:10:26.969Z,88.23
2017-10-09T21:12:55.296Z,88.28
2017-10-09T21:15:23.658Z,88.26
2017-10-09T21:17:52.006Z,87.94
2017-10-09T21:20:21.490Z,88.26
2017-10-09T21:22:49.851Z,87.95
2017-10-09T21:25:18.957Z,88.22
2017-10-09T21:27:47.309Z,87.94
2017-10-09T21:30:15.632Z,88.34
2017-10-09T21:32:43.997Z,88.38
2017-10-09T21:35:13.126Z,88.60
2017-10-09T21:37:41.440Z,88.70
2017-10-09T21:40:09.833Z,88.90
2017-10-09T21:42:38.177Z,88.94
2017-10-09T21:45:06.524Z,89.14
2017-10-09T21:47:34.852Z,88.95
2017-10-09T21:50:03.213Z,88.32
2017-10-09T21:52:31.540Z,88.37
2017-10-09T21:54:59.859Z,88.72
2017-10-09T21:57:28.199Z,88.41
2017-10-09T21:59:56.521Z,88.76
2017-10-09T22:02:24.896Z,88.94
2017-10-09T22:04:53.233Z,88.54
2017-10-09T22:07:22.363Z,88.36
2017-10-09T22:09:50.683Z,88.75
2017-10-09T22:12:19.016Z,88.68
2017-10-09T22:14:47.365Z,88.76
2017-10-09T22:17:17.276Z,88.71
2017-10-09T22:19:45.631Z,89.03
2017-10-09T22:22:14.101Z,89.43
2017-10-09T22:24:42.458Z,89.24
2017-10-09T22:27:10.767Z,88.59
2017-10-09T22:29:39.102Z,88.86
2017-10-09T22:32:07.438Z,89.13
2017-10-09T22:34:35.813Z,88.27
2017-10-09T22:37:04.165Z,88.62
2017-10-09T22:39:32.476Z,88.08
2017-10-09T22:42:01.395Z,88.71
2017-10-09T22:44:30.490Z,88.95
2017-10-09T22:46:58.841Z,89.32
2017-10-09T22:49:27.185Z,89.51
2017-10-09T22:51:55.495Z,89.76
2017-10-09T22:54:41.681Z,88.96
2017-10-09T22:57:10.014Z,88.47
2017-10-09T22:59:38.355Z,88.79
2017-10-09T23:02:06.693Z,88.88
2017-10-09T23:04:35.037Z,88.91
2017-10-09T23:07:03.380Z,88.70
2017-10-09T23:09:31.713Z,89.35
2017-10-09T23:12:00.832Z,89.54
2017-10-09T23:14:29.195Z,88.50
2017-10-09T23:16:57.860Z,87.85
2017-10-09T23:19:26.206Z,88.62
2017-10-09T23:21:54.530Z,88.46
2017-10-09T23:24:23.644Z,88.40
2017-10-09T23:26:51.964Z,89.24
2017-10-09T23:29:20.323Z,89.07
2017-10-09T23:31:48.638Z,89.04
2017-10-09T23:34:16.986Z,88.69
2017-10-09T23:36:45.326Z,88.53
2017-10-09T23:39:13.667Z,88.48
2017-10-09T23:41:42.003Z,88.49
2017-10-09T23:44:10.317Z,88.54
2017-10-09T23:46:38.675Z,88.14
2017-10-09T23:49:07.006Z,88.44
2017-10-09T23:51:35.362Z,88.50
2017-10-09T23:54:03.672Z,88.66
2017-10-09T23:56:31.987Z,88.73
2017-10-09T23:59:00.319Z,88.58
